createdAt,value
2023-05-20T00:00:50.841Z,0.00
2023-05-20T00:01:50.828Z,0.00
2023-05-20T00:02:50.901Z,0.00
2023-05-20T00:03:50.960Z,0.00
2023-05-20T00:04:50.833Z,0.00
2023-05-20T00:05:50.778Z,0.00
2023-05-20T00:06:50.774Z,0.00
2023-05-20T00:07:50.766Z,0.00
2023-05-20T00:08:50.753Z,0.00
2023-05-20T00:09:50.758Z,0.00
2023-05-20T00:10:50.733Z,0.00
2023-05-20T00:11:50.724Z,0.00
2023-05-20T00:12:50.725Z,0.00
2023-05-20T00:13:50.782Z,0.00
2023-05-20T00:14:53.102Z,0.00
2023-05-20T00:15:50.692Z,0.00
2023-05-20T00:16:50.771Z,0.00
2023-05-20T00:17:50.707Z,0.00
2023-05-20T00:18:50.710Z,0.00
2023-05-20T00:19:50.645Z,0.00
2023-05-20T00:20:50.632Z,0.00
2023-05-20T00:21:50.617Z,0.00
2023-05-20T00:22:50.622Z,0.00
2023-05-20T00:23:50.622Z,0.00
2023-05-20T00:24:50.596Z,0.00
2023-05-20T00:25:50.591Z,0.00
2023-05-20T00:26:50.571Z,0.00
2023-05-20T00:27:50.591Z,0.00
2023-05-20T00:28:50.578Z,0.00
2023-05-20T00:29:50.555Z,0.00
2023-05-20T00:30:50.534Z,0.00
2023-05-20T00:31:50.537Z,0.00
2023-05-20T00:32:50.585Z,0.00
2023-05-20T00:33:50.521Z,0.00
2023-05-20T00:34:50.499Z,0.00
2023-05-20T00:35:50.489Z,0.00
2023-05-20T00:36:50.477Z,0.00
2023-05-20T00:37:50.539Z,0.00
2023-05-20T00:38:50.456Z,0.00
2023-05-20T00:39:50.450Z,0.00
2023-05-20T00:40:50.497Z,0.00
2023-05-20T00:41:50.445Z,0.00
2023-05-20T00:42:50.441Z,0.00
2023-05-20T00:43:50.411Z,0.00
2023-05-20T00:44:50.389Z,0.00
2023-05-20T00:45:50.398Z,0.00
2023-05-20T00:46:50.407Z,0.00
2023-05-20T00:47:50.391Z,0.00
2023-05-20T00:48:50.360Z,0.00
2023-05-20T00:49:50.551Z,0.00
2023-05-20T00:50:51.349Z,0.00
2023-05-20T00:51:50.343Z,0.00
2023-05-20T00:52:50.313Z,0.00
2023-05-20T00:53:50.310Z,0.00
2023-05-20T00:54:50.293Z,0.00
2023-05-20T00:55:50.296Z,0.00
2023-05-20T00:56:50.287Z,0.00
2023-05-20T00:57:50.258Z,0.00
2023-05-20T00:58:50.255Z,0.00
2023-05-20T00:59:50.251Z,0.00
2023-05-20T01:00:50.254Z,0.00
2023-05-20T01:01:50.280Z,0.00
2023-05-20T01:02:50.297Z,0.00
2023-05-20T01:03:50.223Z,0.00
2023-05-20T01:04:50.200Z,0.00
2023-05-20T01:05:50.208Z,0.00
2023-05-20T01:06:50.172Z,0.00
2023-05-20T01:07:50.179Z,0.00
2023-05-20T01:08:50.147Z,0.00
2023-05-20T01:09:50.185Z,0.00
2023-05-20T01:10:50.158Z,0.00
2023-05-20T01:11:50.129Z,0.00
2023-05-20T01:12:50.102Z,0.00
2023-05-20T01:13:50.103Z,0.00
2023-05-20T01:14:50.125Z,0.00
2023-05-20T01:15:50.095Z,0.00
2023-05-20T01:16:50.074Z,0.00
2023-05-20T01:17:50.094Z,0.00
2023-05-20T01:18:50.099Z,0.00
2023-05-20T01:19:50.058Z,0.00
2023-05-20T01:20:50.030Z,0.00
2023-05-20T01:21:50.011Z,0.00
2023-05-20T01:22:51.011Z,0.00
2023-05-20T01:23:50.019Z,0.00
2023-05-20T01:24:51.008Z,0.00
2023-05-20T01:25:49.984Z,0.00
2023-05-20T01:26:49.980Z,0.00
2023-05-20T01:27:49.979Z,0.00
2023-05-20T01:28:49.984Z,0.00
2023-05-20T01:29:49.946Z,0.00
2023-05-20T01:30:49.924Z,0.00
2023-05-20T01:31:49.942Z,0.00
2023-05-20T01:32:49.951Z,0.00
2023-05-20T01:33:49.910Z,0.00
2023-05-20T01:34:49.894Z,0.00
2023-05-20T01:35:49.882Z,0.00
2023-05-20T01:36:49.867Z,0.00
2023-05-20T01:37:49.868Z,0.00
2023-05-20T01:38:49.860Z,0.00
2023-05-20T01:39:49.837Z,0.00
2023-05-20T01:40:49.832Z,0.00
2023-05-20T01:41:49.822Z,0.00
2023-05-20T01:42:49.829Z,0.00
2023-05-20T01:43:49.796Z,0.00
2023-05-20T01:44:49.796Z,0.00
2023-05-20T01:45:49.778Z,0.00
2023-05-20T01:46:49.828Z,0.00
2023-05-20T01:47:49.812Z,0.00
2023-05-20T01:48:49.766Z,0.00
2023-05-20T01:49:49.752Z,0.00
2023-05-20T01:50:49.737Z,0.00
2023-05-20T01:51:49.708Z,0.00
2023-05-20T01:52:49.701Z,0.00
2023-05-20T01:53:49.749Z,0.00
2023-05-20T01:54:49.684Z,0.00
2023-05-20T01:55:49.672Z,0.00
2023-05-20T01:56:49.680Z,0.00
2023-05-20T01:57:49.665Z,0.00
2023-05-20T01:58:49.641Z,0.00
2023-05-20T01:59:49.629Z,0.00
2023-05-20T02:00:49.653Z,0.00
2023-05-20T02:01:49.685Z,0.00
2023-05-20T02:02:49.739Z,0.00
2023-05-20T02:03:49.598Z,0.00
2023-05-20T02:04:49.584Z,0.00
2023-05-20T02:05:49.657Z,0.00
2023-05-20T02:06:49.588Z,0.00
2023-05-20T02:07:49.564Z,0.00
2023-05-20T02:08:49.537Z,0.00
2023-05-20T02:09:49.528Z,0.00
2023-05-20T02:10:49.543Z,0.00
2023-05-20T02:11:49.516Z,0.00
2023-05-20T02:12:49.533Z,0.00
2023-05-20T02:13:49.491Z,0.00
2023-05-20T02:14:49.519Z,0.00
2023-05-20T02:15:49.492Z,0.00
2023-05-20T02:16:49.518Z,0.00
2023-05-20T02:17:49.488Z,0.00
2023-05-20T02:18:49.471Z,0.00
2023-05-20T02:19:49.443Z,0.00
2023-05-20T02:20:49.415Z,0.00
2023-05-20T02:21:49.413Z,0.00
2023-05-20T02:22:49.405Z,0.00
2023-05-20T02:23:49.399Z,0.00
2023-05-20T02:24:49.412Z,0.00
2023-05-20T02:25:49.371Z,0.00
2023-05-20T02:26:49.384Z,0.00
2023-05-20T02:27:49.359Z,0.00
2023-05-20T02:28:49.353Z,0.00
2023-05-20T02:29:49.366Z,0.00
2023-05-20T02:30:49.324Z,0.00
2023-05-20T02:31:49.341Z,0.00
2023-05-20T02:32:49.320Z,0.00
2023-05-20T02:33:49.379Z,0.00
2023-05-20T02:34:49.290Z,0.00
2023-05-20T02:35:49.273Z,0.00
2023-05-20T02:36:49.262Z,0.00
2023-05-20T02:37:49.252Z,0.00
2023-05-20T02:38:49.259Z,0.00
2023-05-20T02:39:49.239Z,0.00
2023-05-20T02:40:49.233Z,0.00
2023-05-20T02:41:49.216Z,0.00
2023-05-20T02:42:49.234Z,0.00
2023-05-20T02:43:49.224Z,0.00
2023-05-20T02:44:49.188Z,0.00
2023-05-20T02:45:49.181Z,0.00
2023-05-20T02:46:49.158Z,0.00
2023-05-20T02:47:49.188Z,0.00
2023-05-20T02:48:49.140Z,0.00
2023-05-20T02:49:49.132Z,0.00
2023-05-20T02:50:49.127Z,0.00
2023-05-20T02:51:49.121Z,0.00
2023-05-20T02:52:49.111Z,0.00
2023-05-20T02:53:49.107Z,0.00
2023-05-20T02:54:49.085Z,0.00
2023-05-20T02:55:49.073Z,0.00
2023-05-20T02:56:49.102Z,0.00
2023-05-20T02:57:49.072Z,0.00
2023-05-20T02:58:49.073Z,0.00
2023-05-20T02:59:49.041Z,0.00
2023-05-20T03:00:49.024Z,0.00
2023-05-20T03:01:49.054Z,0.00
2023-05-20T03:02:49.025Z,0.00
2023-05-20T03:03:48.993Z,0.00
2023-05-20T03:04:49.024Z,0.00
2023-05-20T03:05:49.972Z,0.00
2023-05-20T03:06:48.990Z,0.00
2023-05-20T03:07:48.976Z,0.00
2023-05-20T03:08:48.954Z,0.00
2023-05-20T03:09:48.927Z,0.00
2023-05-20T03:10:48.935Z,0.00
2023-05-20T03:11:48.934Z,0.00
2023-05-20T03:12:48.920Z,0.00
2023-05-20T03:13:48.905Z,0.00
2023-05-20T03:14:48.878Z,0.00
2023-05-20T03:15:48.978Z,0.00
2023-05-20T03:16:48.869Z,0.00
2023-05-20T03:17:48.891Z,0.00
2023-05-20T03:18:48.885Z,0.00
2023-05-20T03:19:48.839Z,0.00
2023-05-20T03:20:48.924Z,0.00
2023-05-20T03:21:48.848Z,0.00
2023-05-20T03:22:48.807Z,0.00
2023-05-20T03:23:48.789Z,0.00
2023-05-20T03:24:48.833Z,0.00
2023-05-20T03:25:48.794Z,0.00
2023-05-20T03:26:48.765Z,0.00
2023-05-20T03:27:48.759Z,0.00
2023-05-20T03:28:48.745Z,0.00
2023-05-20T03:29:48.752Z,0.00
2023-05-20T03:30:48.734Z,0.00
2023-05-20T03:31:48.797Z,0.00
2023-05-20T03:32:48.768Z,0.00
2023-05-20T03:33:48.698Z,0.00
2023-05-20T03:34:48.698Z,0.00
2023-05-20T03:35:48.693Z,0.00
2023-05-20T03:36:48.679Z,0.00
2023-05-20T03:37:48.667Z,0.00
2023-05-20T03:38:48.666Z,0.00
2023-05-20T03:39:48.657Z,0.00
2023-05-20T03:40:48.621Z,0.00
2023-05-20T03:41:48.620Z,5.62
2023-05-20T03:42:48.612Z,5.62
2023-05-20T03:43:48.613Z,5.62
2023-05-20T03:44:48.582Z,5.62
2023-05-20T03:45:48.581Z,5.62
2023-05-20T03:46:48.608Z,5.62
2023-05-20T03:47:48.652Z,5.62
2023-05-20T03:48:48.568Z,5.62
2023-05-20T03:49:48.540Z,5.62
2023-05-20T03:50:48.547Z,5.62
2023-05-20T03:51:48.551Z,5.62
2023-05-20T03:52:48.535Z,5.62
2023-05-20T03:53:48.518Z,5.62
2023-05-20T03:54:48.484Z,5.62
2023-05-20T03:55:48.488Z,5.62
2023-05-20T03:56:48.473Z,11.25
2023-05-20T03:57:48.495Z,11.25
2023-05-20T03:58:48.453Z,11.25
2023-05-20T03:59:48.438Z,11.25
2023-05-20T04:00:48.433Z,11.25
2023-05-20T04:01:48.478Z,11.25
2023-05-20T04:02:48.528Z,11.25
2023-05-20T04:03:48.438Z,11.25
2023-05-20T04:04:48.389Z,11.25
2023-05-20T04:05:48.385Z,11.25
2023-05-20T04:06:48.401Z,11.25
2023-05-20T04:07:48.376Z,11.25
2023-05-20T04:08:48.347Z,11.25
2023-05-20T04:09:48.334Z,11.25
2023-05-20T04:10:48.333Z,11.25
2023-05-20T04:11:48.337Z,11.25
2023-05-20T04:12:48.310Z,11.25
2023-05-20T04:13:48.305Z,11.25
2023-05-20T04:14:48.280Z,11.25
2023-05-20T04:15:48.285Z,11.25
2023-05-20T04:16:48.352Z,11.25
2023-05-20T04:17:48.311Z,11.25
2023-05-20T04:18:48.319Z,11.25
2023-05-20T04:19:48.245Z,11.25
2023-05-20T04:20:48.245Z,11.25
2023-05-20T04:21:48.258Z,11.25
2023-05-20T04:22:48.232Z,16.88
2023-05-20T04:23:48.211Z,16.88
2023-05-20T04:24:48.195Z,16.88
2023-05-20T04:25:49.231Z,16.88
2023-05-20T04:26:48.174Z,16.88
2023-05-20T04:27:48.167Z,16.88
2023-05-20T04:28:48.153Z,16.88
2023-05-20T04:29:48.155Z,22.50
2023-05-20T04:30:48.176Z,22.50
2023-05-20T04:31:48.152Z,22.50
2023-05-20T04:32:48.145Z,22.50
2023-05-20T04:33:48.106Z,22.50
2023-05-20T04:34:48.126Z,22.50
2023-05-20T04:35:48.111Z,22.50
2023-05-20T04:36:48.160Z,22.50
2023-05-20T04:37:48.150Z,28.12
2023-05-20T04:38:48.053Z,28.12
2023-05-20T04:39:48.078Z,28.12
2023-05-20T04:40:48.024Z,28.12
2023-05-20T04:41:48.021Z,28.12
2023-05-20T04:42:48.000Z,28.12
2023-05-20T04:43:49.001Z,33.75
2023-05-20T04:44:48.047Z,33.75
2023-05-20T04:45:48.007Z,33.75
2023-05-20T04:46:48.000Z,33.75
2023-05-20T04:47:47.973Z,39.38
2023-05-20T04:48:48.160Z,39.38
2023-05-20T04:49:47.945Z,45.00
2023-05-20T04:50:48.933Z,45.00
2023-05-20T04:51:47.919Z,45.00
2023-05-20T04:52:47.914Z,45.00
2023-05-20T04:53:47.917Z,50.62
2023-05-20T04:54:47.897Z,50.62
2023-05-20T04:55:47.876Z,56.25
2023-05-20T04:56:47.908Z,56.25
2023-05-20T04:57:47.864Z,56.25
2023-05-20T04:58:47.876Z,56.25
2023-05-20T04:59:47.839Z,56.25
2023-05-20T05:00:47.834Z,56.25
2023-05-20T05:01:47.869Z,56.25
2023-05-20T05:02:47.878Z,56.25
2023-05-20T05:03:47.810Z,56.25
2023-05-20T05:04:47.835Z,56.25
2023-05-20T05:05:47.800Z,56.25
2023-05-20T05:06:47.776Z,56.25
2023-05-20T05:07:47.823Z,56.25
2023-05-20T05:08:47.755Z,56.25
2023-05-20T05:09:47.745Z,56.25
2023-05-20T05:10:47.735Z,56.25
2023-05-20T05:11:47.749Z,56.25
2023-05-20T05:12:47.739Z,56.25
2023-05-20T05:13:47.703Z,56.25
2023-05-20T05:14:47.696Z,56.25
2023-05-20T05:15:47.705Z,56.25
2023-05-20T05:16:47.711Z,56.25
2023-05-20T05:17:47.687Z,56.25
2023-05-20T05:18:47.668Z,56.25
2023-05-20T05:19:47.643Z,50.62
2023-05-20T05:20:47.632Z,50.62
2023-05-20T05:21:47.697Z,56.25
2023-05-20T05:22:47.612Z,56.25
2023-05-20T05:23:47.597Z,56.25
2023-05-20T05:24:47.593Z,56.25
2023-05-20T05:25:47.634Z,56.25
2023-05-20T05:26:47.619Z,56.25
2023-05-20T05:27:47.567Z,56.25
2023-05-20T05:28:47.553Z,56.25
2023-05-20T05:29:47.538Z,56.25
2023-05-20T05:30:47.542Z,56.25
2023-05-20T05:31:47.535Z,56.25
2023-05-20T05:32:47.621Z,56.25
2023-05-20T05:33:47.500Z,56.25
2023-05-20T05:34:47.500Z,56.25
2023-05-20T05:35:47.522Z,56.25
2023-05-20T05:36:47.471Z,56.25
2023-05-20T05:37:47.458Z,56.25
2023-05-20T05:38:47.444Z,56.25
2023-05-20T05:39:47.577Z,56.25
2023-05-20T05:41:14.362Z,61.88
2023-05-20T05:41:47.417Z,61.88
2023-05-20T05:42:47.428Z,67.50
2023-05-20T05:43:47.401Z,67.50
2023-05-20T05:44:47.448Z,67.50
2023-05-20T05:45:47.376Z,67.50
2023-05-20T05:46:47.410Z,67.50
2023-05-20T05:47:47.390Z,67.50
2023-05-20T05:48:47.403Z,73.12
2023-05-20T05:49:47.359Z,73.12
2023-05-20T05:50:47.331Z,73.12
2023-05-20T05:51:47.316Z,78.75
2023-05-20T05:52:47.297Z,78.75
2023-05-20T05:53:47.318Z,78.75
2023-05-20T05:54:47.328Z,78.75
2023-05-20T05:55:47.270Z,78.75
2023-05-20T05:56:47.273Z,84.38
2023-05-20T05:57:47.254Z,84.38
2023-05-20T05:58:47.278Z,84.38
2023-05-20T05:59:47.237Z,84.38
2023-05-20T06:00:48.245Z,90.00
2023-05-20T06:01:47.297Z,90.00
2023-05-20T06:02:47.454Z,90.00
2023-05-20T06:03:47.299Z,95.62
2023-05-20T06:04:47.182Z,95.62
2023-05-20T06:05:47.196Z,95.62
2023-05-20T06:06:47.163Z,95.62
2023-05-20T06:07:47.185Z,95.62
2023-05-20T06:08:47.161Z,95.62
2023-05-20T06:09:47.142Z,95.62
2023-05-20T06:10:47.132Z,95.62
2023-05-20T06:11:47.125Z,101.25
2023-05-20T06:12:47.147Z,101.25
2023-05-20T06:13:47.111Z,101.25
2023-05-20T06:14:47.089Z,101.25
2023-05-20T06:15:47.085Z,101.25
2023-05-20T06:16:47.075Z,101.25
2023-05-20T06:17:47.098Z,106.88
2023-05-20T06:18:47.117Z,106.88
2023-05-20T06:19:47.036Z,112.50
2023-05-20T06:20:47.016Z,112.50
2023-05-20T06:21:47.024Z,112.50
2023-05-20T06:22:47.042Z,118.12
2023-05-20T06:23:47.007Z,118.12
2023-05-20T06:24:46.992Z,118.12
2023-05-20T06:25:46.981Z,123.75
2023-05-20T06:26:46.977Z,123.75
2023-05-20T06:27:46.985Z,129.38
2023-05-20T06:28:46.949Z,129.38
2023-05-20T06:29:46.937Z,129.38
2023-05-20T06:30:46.946Z,135.00
2023-05-20T06:31:46.931Z,140.62
2023-05-20T06:32:46.925Z,140.62
2023-05-20T06:33:46.894Z,146.25
2023-05-20T06:34:46.881Z,151.88
2023-05-20T06:35:46.887Z,157.50
2023-05-20T06:36:46.877Z,163.12
2023-05-20T06:37:46.869Z,163.12
2023-05-20T06:38:46.852Z,157.50
2023-05-20T06:39:46.835Z,163.12
2023-05-20T06:40:46.841Z,163.12
2023-05-20T06:41:46.807Z,163.12
2023-05-20T06:42:46.804Z,163.12
2023-05-20T06:43:46.806Z,168.75
2023-05-20T06:44:46.793Z,168.75
2023-05-20T06:45:46.780Z,180.00
2023-05-20T06:46:46.896Z,185.62
2023-05-20T06:47:46.813Z,191.25
2023-05-20T06:48:46.769Z,191.25
2023-05-20T06:49:47.742Z,185.62
2023-05-20T06:50:47.768Z,174.38
2023-05-20T06:51:46.716Z,174.38
2023-05-20T06:52:46.701Z,174.38
2023-05-20T06:53:46.692Z,157.50
2023-05-20T06:54:46.716Z,146.25
2023-05-20T06:55:46.678Z,146.25
2023-05-20T06:56:46.665Z,151.88
2023-05-20T06:57:46.653Z,157.50
2023-05-20T06:58:46.642Z,157.50
2023-05-20T06:59:46.650Z,163.12
2023-05-20T07:00:46.615Z,174.38
2023-05-20T07:01:46.690Z,174.38
2023-05-20T07:02:46.701Z,180.00
2023-05-20T07:03:46.654Z,180.00
2023-05-20T07:04:46.635Z,191.25
2023-05-20T07:05:46.585Z,202.50
2023-05-20T07:06:46.561Z,202.50
2023-05-20T07:07:46.553Z,202.50
2023-05-20T07:08:46.552Z,213.75
2023-05-20T07:09:46.533Z,213.75
2023-05-20T07:10:46.524Z,213.75
2023-05-20T07:11:46.517Z,208.12
2023-05-20T07:12:46.500Z,208.12
2023-05-20T07:13:47.517Z,213.75
2023-05-20T07:14:46.475Z,225.00
2023-05-20T07:15:46.521Z,219.38
2023-05-20T07:16:46.465Z,230.62
2023-05-20T07:17:46.496Z,241.88
2023-05-20T07:18:46.477Z,253.12
2023-05-20T07:19:46.433Z,247.50
2023-05-20T07:20:46.423Z,258.75
2023-05-20T07:21:46.408Z,281.25
2023-05-20T07:22:46.456Z,292.50
2023-05-20T07:23:46.390Z,275.62
2023-05-20T07:24:46.386Z,286.88
2023-05-20T07:25:46.376Z,309.38
2023-05-20T07:26:46.353Z,298.12
2023-05-20T07:27:46.361Z,292.50
2023-05-20T07:28:46.342Z,281.25
2023-05-20T07:29:46.333Z,281.25
2023-05-20T07:30:46.321Z,270.00
2023-05-20T07:31:46.360Z,253.12
2023-05-20T07:32:46.395Z,241.88
2023-05-20T07:33:46.298Z,258.75
2023-05-20T07:34:46.289Z,253.12
2023-05-20T07:35:46.277Z,264.38
2023-05-20T07:36:46.289Z,275.62
2023-05-20T07:37:46.252Z,264.38
2023-05-20T07:39:00.539Z,264.38
2023-05-20T07:39:48.272Z,270.00
2023-05-20T07:40:46.229Z,292.50
2023-05-20T07:41:46.225Z,309.38
2023-05-20T07:42:46.198Z,292.50
2023-05-20T07:43:46.199Z,281.25
2023-05-20T07:44:46.183Z,275.62
2023-05-20T07:45:46.266Z,270.00
2023-05-20T07:46:46.187Z,270.00
2023-05-20T07:47:46.252Z,286.88
2023-05-20T07:48:46.149Z,275.62
2023-05-20T07:49:46.142Z,241.88
2023-05-20T07:50:46.169Z,225.00
2023-05-20T07:51:46.132Z,213.75
2023-05-20T07:52:56.105Z,213.75
2023-05-20T07:53:48.122Z,219.38
2023-05-20T07:54:46.077Z,230.62
2023-05-20T07:55:46.078Z,236.25
2023-05-20T07:56:46.062Z,208.12
2023-05-20T07:57:46.041Z,202.50
2023-05-20T07:58:46.035Z,208.12
2023-05-20T07:59:46.051Z,213.75
2023-05-20T08:00:46.045Z,213.75
2023-05-20T08:01:46.008Z,208.12
2023-05-20T08:02:46.090Z,208.12
2023-05-20T08:03:46.091Z,208.12
2023-05-20T08:04:46.119Z,208.12
2023-05-20T08:05:46.000Z,236.25
2023-05-20T08:06:45.962Z,230.62
2023-05-20T08:07:45.961Z,236.25
2023-05-20T08:08:45.963Z,253.12
2023-05-20T08:09:45.953Z,270.00
2023-05-20T08:10:45.934Z,258.75
2023-05-20T08:11:47.331Z,264.38
2023-05-20T08:12:45.904Z,281.25
2023-05-20T08:13:45.909Z,281.25
2023-05-20T08:14:45.881Z,264.38
2023-05-20T08:15:45.876Z,258.75
2023-05-20T08:16:45.885Z,258.75
2023-05-20T08:17:45.911Z,253.12
2023-05-20T08:18:45.892Z,258.75
2023-05-20T08:19:45.846Z,270.00
2023-05-20T08:20:45.843Z,275.62
2023-05-20T08:21:45.803Z,258.75
2023-05-20T08:22:45.819Z,236.25
2023-05-20T08:23:45.801Z,236.25
2023-05-20T08:24:45.769Z,241.88
2023-05-20T08:25:45.768Z,225.00
2023-05-20T08:26:45.749Z,213.75
2023-05-20T08:27:45.761Z,213.75
2023-05-20T08:28:45.734Z,213.75
2023-05-20T08:29:45.729Z,219.38
2023-05-20T08:30:45.756Z,225.00
2023-05-20T08:31:45.714Z,219.38
2023-05-20T08:32:46.481Z,219.38
2023-05-20T08:33:46.388Z,225.00
2023-05-20T08:34:45.667Z,230.62
2023-05-20T08:35:45.670Z,230.62
2023-05-20T08:36:45.671Z,225.00
2023-05-20T08:37:45.657Z,236.25
2023-05-20T08:38:45.704Z,264.38
2023-05-20T08:39:45.623Z,281.25
2023-05-20T08:40:45.617Z,281.25
2023-05-20T08:41:45.622Z,281.25
2023-05-20T08:42:45.599Z,281.25
2023-05-20T08:43:45.611Z,315.00
2023-05-20T08:44:45.569Z,331.88
2023-05-20T08:45:45.581Z,315.00
2023-05-20T08:46:45.622Z,326.25
2023-05-20T08:47:45.600Z,309.38
2023-05-20T08:48:45.559Z,286.88
2023-05-20T08:49:45.537Z,264.38
2023-05-20T08:50:45.524Z,247.50
2023-05-20T08:51:46.516Z,241.88
2023-05-20T08:52:45.519Z,241.88
2023-05-20T08:53:45.495Z,258.75
2023-05-20T08:54:45.490Z,275.62
2023-05-20T08:55:45.481Z,286.88
2023-05-20T08:56:45.518Z,303.75
2023-05-20T08:57:45.469Z,337.50
2023-05-20T08:58:45.453Z,354.38
2023-05-20T08:59:45.460Z,337.50
2023-05-20T09:00:45.443Z,343.12
2023-05-20T09:01:45.452Z,343.12
2023-05-20T09:02:45.425Z,326.25
2023-05-20T09:03:45.390Z,331.88
2023-05-20T09:04:45.433Z,315.00
2023-05-20T09:05:45.364Z,281.25
2023-05-20T09:06:45.373Z,275.62
2023-05-20T09:07:45.354Z,264.38
2023-05-20T09:08:45.349Z,275.62
2023-05-20T09:09:45.342Z,326.25
2023-05-20T09:10:45.339Z,343.12
2023-05-20T09:11:45.331Z,337.50
2023-05-20T09:12:45.295Z,360.00
2023-05-20T09:13:45.292Z,416.25
2023-05-20T09:14:45.298Z,421.88
2023-05-20T09:15:45.309Z,410.62
2023-05-20T09:16:45.348Z,416.25
2023-05-20T09:17:45.399Z,416.25
2023-05-20T09:18:45.280Z,427.50
2023-05-20T09:19:45.238Z,478.12
2023-05-20T09:20:45.249Z,472.50
2023-05-20T09:21:45.214Z,466.88
2023-05-20T09:22:45.195Z,483.75
2023-05-20T09:23:45.205Z,483.75
2023-05-20T09:24:45.205Z,489.38
2023-05-20T09:25:45.166Z,483.75
2023-05-20T09:26:45.155Z,489.38
2023-05-20T09:27:45.164Z,489.38
2023-05-20T09:28:45.162Z,489.38
2023-05-20T09:29:45.128Z,483.75
2023-05-20T09:30:46.152Z,444.38
2023-05-20T09:31:46.164Z,433.12
2023-05-20T09:32:45.135Z,472.50
2023-05-20T09:33:45.101Z,495.00
2023-05-20T09:34:45.081Z,483.75
2023-05-20T09:35:45.093Z,489.38
2023-05-20T09:36:45.099Z,489.38
2023-05-20T09:37:45.080Z,489.38
2023-05-20T09:38:45.046Z,489.38
2023-05-20T09:39:45.037Z,500.62
2023-05-20T09:40:45.020Z,483.75
2023-05-20T09:41:45.042Z,455.62
2023-05-20T09:42:45.033Z,495.00
2023-05-20T09:43:44.992Z,483.75
2023-05-20T09:44:44.983Z,466.88
2023-05-20T09:45:44.975Z,478.12
2023-05-20T09:46:44.981Z,461.25
2023-05-20T09:47:45.012Z,444.38
2023-05-20T09:48:44.943Z,433.12
2023-05-20T09:49:44.986Z,421.88
2023-05-20T09:50:44.922Z,399.38
2023-05-20T09:51:44.914Z,421.88
2023-05-20T09:52:44.910Z,455.62
2023-05-20T09:53:44.925Z,455.62
2023-05-20T09:54:44.931Z,455.62
2023-05-20T09:55:44.916Z,450.00
2023-05-20T09:56:44.881Z,461.25
2023-05-20T09:57:44.862Z,466.88
2023-05-20T09:58:44.861Z,444.38
2023-05-20T09:59:44.846Z,410.62
2023-05-20T10:00:44.840Z,421.88
2023-05-20T10:01:44.834Z,438.75
2023-05-20T10:02:44.909Z,399.38
2023-05-20T10:03:44.927Z,365.62
2023-05-20T10:04:44.785Z,388.12
2023-05-20T10:05:44.805Z,399.38
2023-05-20T10:06:44.763Z,405.00
2023-05-20T10:07:44.749Z,405.00
2023-05-20T10:08:44.747Z,421.88
2023-05-20T10:09:44.746Z,444.38
2023-05-20T10:10:44.741Z,455.62
2023-05-20T10:11:44.720Z,472.50
2023-05-20T10:12:44.738Z,444.38
2023-05-20T10:13:44.694Z,416.25
2023-05-20T10:14:44.759Z,405.00
2023-05-20T10:15:44.709Z,405.00
2023-05-20T10:16:44.681Z,421.88
2023-05-20T10:17:44.695Z,444.38
2023-05-20T10:18:44.667Z,433.12
2023-05-20T10:19:44.644Z,421.88
2023-05-20T10:20:44.631Z,455.62
2023-05-20T10:21:44.648Z,466.88
2023-05-20T10:22:44.609Z,450.00
2023-05-20T10:23:44.609Z,495.00
2023-05-20T10:24:44.628Z,511.88
2023-05-20T10:25:44.577Z,506.25
2023-05-20T10:26:44.567Z,523.12
2023-05-20T10:27:44.549Z,500.62
2023-05-20T10:28:44.555Z,455.62
2023-05-20T10:29:44.530Z,455.62
2023-05-20T10:30:44.578Z,466.88
2023-05-20T10:31:44.516Z,461.25
2023-05-20T10:32:44.549Z,455.62
2023-05-20T10:33:44.613Z,444.38
2023-05-20T10:34:44.486Z,455.62
2023-05-20T10:35:44.473Z,450.00
2023-05-20T10:36:44.470Z,450.00
2023-05-20T10:37:44.497Z,433.12
2023-05-20T10:38:44.463Z,438.75
2023-05-20T10:39:44.447Z,450.00
2023-05-20T10:40:44.435Z,444.38
2023-05-20T10:41:44.430Z,455.62
2023-05-20T10:42:44.421Z,450.00
2023-05-20T10:43:44.438Z,444.38
2023-05-20T10:44:44.436Z,466.88
2023-05-20T10:45:44.426Z,478.12
2023-05-20T10:47:45.508Z,483.75
2023-05-20T10:48:44.393Z,461.25
2023-05-20T10:49:44.341Z,466.88
2023-05-20T10:50:44.346Z,495.00
2023-05-20T10:51:44.345Z,556.88
2023-05-20T10:52:44.340Z,624.38
2023-05-20T10:53:44.294Z,624.38
2023-05-20T10:54:44.286Z,618.75
2023-05-20T10:55:44.272Z,658.12
2023-05-20T10:56:44.279Z,613.12
2023-05-20T10:57:44.262Z,551.25
2023-05-20T10:58:44.253Z,585.00
2023-05-20T10:59:44.249Z,540.00
2023-05-20T11:00:44.253Z,506.25
2023-05-20T11:01:44.263Z,528.75
2023-05-20T11:02:44.292Z,523.12
2023-05-20T11:03:44.246Z,551.25
2023-05-20T11:04:44.204Z,545.62
2023-05-20T11:05:44.256Z,556.88
2023-05-20T11:06:44.176Z,573.75
2023-05-20T11:07:44.161Z,635.62
2023-05-20T11:08:44.151Z,568.12
2023-05-20T11:09:44.154Z,568.12
2023-05-20T11:10:44.151Z,596.25
2023-05-20T11:11:44.132Z,585.00
2023-05-20T11:12:44.151Z,601.88
2023-05-20T11:13:44.146Z,618.75
2023-05-20T11:14:44.097Z,568.12
2023-05-20T11:15:44.108Z,562.50
2023-05-20T11:16:44.151Z,568.12
2023-05-20T11:17:44.118Z,579.38
2023-05-20T11:18:44.099Z,579.38
2023-05-20T11:19:44.061Z,590.62
2023-05-20T11:20:44.079Z,568.12
2023-05-20T11:21:44.038Z,556.88
2023-05-20T11:22:44.023Z,545.62
2023-05-20T11:23:44.007Z,545.62
2023-05-20T11:24:44.015Z,585.00
2023-05-20T11:25:44.009Z,590.62
2023-05-20T11:26:43.999Z,590.62
2023-05-20T11:27:43.969Z,585.00
2023-05-20T11:28:44.001Z,585.00
2023-05-20T11:29:43.979Z,579.38
2023-05-20T11:30:43.979Z,562.50
2023-05-20T11:31:44.000Z,573.75
2023-05-20T11:32:44.025Z,590.62
2023-05-20T11:33:43.930Z,562.50
2023-05-20T11:34:43.933Z,551.25
2023-05-20T11:35:43.924Z,551.25
2023-05-20T11:36:43.896Z,545.62
2023-05-20T11:37:43.890Z,551.25
2023-05-20T11:38:43.908Z,523.12
2023-05-20T11:39:43.961Z,466.88
2023-05-20T11:40:50.600Z,455.62
2023-05-20T11:41:45.854Z,478.12
2023-05-20T11:42:43.837Z,489.38
2023-05-20T11:43:43.857Z,489.38
2023-05-20T11:44:43.815Z,506.25
2023-05-20T11:45:43.804Z,495.00
2023-05-20T11:46:43.817Z,455.62
2023-05-20T11:47:43.845Z,433.12
2023-05-20T11:48:43.830Z,438.75
2023-05-20T11:49:43.767Z,461.25
2023-05-20T11:50:43.799Z,455.62
2023-05-20T11:51:43.773Z,461.25
2023-05-20T11:52:43.762Z,461.25
2023-05-20T11:53:43.729Z,444.38
2023-05-20T11:54:43.717Z,421.88
2023-05-20T11:55:44.717Z,410.62
2023-05-20T11:56:43.720Z,388.12
2023-05-20T11:57:43.697Z,371.25
2023-05-20T11:58:43.688Z,371.25
2023-05-20T11:59:43.672Z,371.25
2023-05-20T12:01:45.760Z,393.75
2023-05-20T12:02:43.759Z,393.75
2023-05-20T12:03:43.745Z,421.88
2023-05-20T12:04:43.633Z,438.75
2023-05-20T12:05:43.663Z,455.62
2023-05-20T12:06:43.653Z,438.75
2023-05-20T12:07:43.587Z,433.12
2023-05-20T12:08:43.603Z,450.00
2023-05-20T12:09:43.565Z,461.25
2023-05-20T12:10:43.573Z,472.50
2023-05-20T12:11:43.569Z,478.12
2023-05-20T12:12:43.539Z,495.00
2023-05-20T12:13:43.537Z,506.25
2023-05-20T12:14:43.516Z,500.62
2023-05-20T12:15:43.564Z,478.12
2023-05-20T12:16:43.538Z,472.50
2023-05-20T12:17:43.555Z,500.62
2023-05-20T12:18:43.508Z,506.25
2023-05-20T12:19:43.535Z,517.50
2023-05-20T12:20:43.506Z,540.00
2023-05-20T12:21:43.463Z,528.75
2023-05-20T12:22:43.451Z,534.38
2023-05-20T12:23:43.448Z,545.62
2023-05-20T12:24:43.421Z,528.75
2023-05-20T12:25:43.429Z,517.50
2023-05-20T12:26:43.410Z,551.25
2023-05-20T12:27:43.387Z,607.50
2023-05-20T12:28:43.392Z,630.00
2023-05-20T12:29:43.392Z,573.75
2023-05-20T12:30:43.382Z,556.88
2023-05-20T12:31:43.394Z,613.12
2023-05-20T12:32:43.374Z,568.12
2023-05-20T12:33:43.342Z,551.25
2023-05-20T12:34:43.335Z,551.25
2023-05-20T12:35:43.350Z,455.62
2023-05-20T12:36:43.315Z,421.88
2023-05-20T12:37:43.298Z,399.38
2023-05-20T12:38:43.331Z,382.50
2023-05-20T12:39:43.298Z,405.00
2023-05-20T12:40:43.278Z,410.62
2023-05-20T12:41:43.248Z,376.88
2023-05-20T12:42:43.270Z,382.50
2023-05-20T12:43:43.264Z,376.88
2023-05-20T12:44:43.272Z,371.25
2023-05-20T12:45:43.235Z,376.88
2023-05-20T12:46:43.302Z,388.12
2023-05-20T12:47:43.235Z,393.75
2023-05-20T12:48:43.200Z,393.75
2023-05-20T12:49:43.186Z,393.75